Time;durP1;ratioP1;P1;durP2;ratioP2;P2;SDS_P1;SDS_P2;PMS_P1;PMS_P2;Temp;Humidity;BMP_temperature;BMP_pressure;BME280_temperature;BME280_humidity;BME280_pressure;Samples;Min_cycle;Max_cycle;Signal;HPM_P1;HPM_P2
2022/11/17 00:04:41;;;;;;;26.75;12.10;;;;;;;-0.74;53.01;99707.50;6037514;23;20050;-80
2022/11/17 00:07:12;;;;;;;26.02;12.65;;;;;;;-0.59;53.50;99716.53;6068512;23;20372;-83
2022/11/17 00:09:38;;;;;;;26.75;13.23;;;;;;;-0.52;53.62;99723.56;6069274;23;20030;-81
2022/11/17 00:14:56;;;;;;;24.88;11.70;;;;;;;-0.54;52.92;99710.75;6070277;23;20030;-81
2022/11/17 00:17:45;;;;;;;26.23;12.55;;;;;;;-0.56;53.34;99703.88;6081900;23;20499;-83
2022/11/17 00:23:17;;;;;;;23.95;12.18;;;;;;;-0.84;52.79;99678.19;6077685;23;20105;-81
2022/11/17 00:25:46;;;;;;;24.60;12.02;;;;;;;-0.72;53.36;99702.44;6093297;23;20023;-78
2022/11/17 00:28:13;;;;;;;24.23;13.93;;;;;;;-0.80;53.58;99682.59;6046404;23;20098;-81
2022/11/17 00:36:29;;;;;;;28.45;13.43;;;;;;;-0.81;53.56;99669.78;6069201;23;20465;-81
2022/11/17 00:39:01;;;;;;;25.85;12.75;;;;;;;-0.96;54.14;99653.06;6044480;23;20019;-81
2022/11/17 00:41:36;;;;;;;29.80;13.68;;;;;;;-0.69;53.63;99692.34;6044224;23;20063;-83
2022/11/17 00:44:03;;;;;;;24.10;13.25;;;;;;;-0.62;54.69;99694.28;6069798;23;20101;-79
2022/11/17 00:46:38;;;;;;;24.05;11.98;;;;;;;-0.73;53.58;99664.94;6091448;23;20030;-79
2022/11/17 00:49:11;;;;;;;21.95;12.00;;;;;;;-0.55;53.43;99685.16;6069055;23;20030;-82
2022/11/17 00:51:48;;;;;;;30.65;12.30;;;;;;;-0.51;54.37;99684.41;6069582;23;20097;-80
2022/11/17 00:54:31;;;;;;;25.30;11.70;;;;;;;-0.52;53.56;99692.91;6068520;23;20090;-82
2022/11/17 00:57:03;;;;;;;26.02;11.63;;;;;;;-0.66;53.75;99665.19;6044681;23;20423;-79
2022/11/17 00:59:38;;;;;;;24.95;12.00;;;;;;;-0.58;53.73;99667.16;6070323;23;20030;-79
2022/11/17 01:02:10;;;;;;;28.05;12.50;;;;;;;-0.48;54.09;99679.41;6071160;23;20014;-80
2022/11/17 01:04:52;;;;;;;21.50;11.07;;;;;;;-0.66;54.16;99642.19;6093146;23;20052;-80
2022/11/17 01:07:24;;;;;;;22.65;10.93;;;;;;;-0.47;54.22;99666.69;6068573;23;20026;-81
2022/11/17 01:10:58;;;;;;;;;;;;;;;;;;;;;
2022/11/17 01:13:38;;;;;;;24.92;11.82;;;;;;;-0.58;53.89;99690.16;6068811;23;20098;-82
2022/11/17 01:16:19;;;;;;;25.88;11.52;;;;;;;-0.65;53.76;99659.25;6067164;23;20023;-82
2022/11/17 01:19:00;;;;;;;25.15;11.55;;;;;;;-0.52;54.65;99665.66;6070242;23;20029;-80
2022/11/17 01:21:31;;;;;;;28.08;13.75;;;;;;;-0.69;54.19;99628.44;6068049;23;20097;-79
2022/11/17 01:24:05;;;;;;;26.58;12.90;;;;;;;-0.71;54.41;99633.50;6066845;23;20023;-82
2022/11/17 01:26:38;;;;;;;22.88;12.20;;;;;;;-0.78;53.93;99637.53;6067698;23;20023;-82
2022/11/17 01:29:06;;;;;;;28.63;14.55;;;;;;;-0.67;54.14;99650.66;6067039;23;20365;-81
2022/11/17 01:31:52;;;;;;;34.97;16.45;;;;;;;-0.64;54.10;99640.56;6090808;23;20022;-82
2022/11/17 01:34:22;;;;;;;31.50;13.90;;;;;;;-0.66;54.37;99636.22;6089156;23;20468;-84
2022/11/17 01:39:47;;;;;;;29.38;14.35;;;;;;;-0.58;54.68;99641.59;6068887;23;20123;-83
2022/11/17 01:42:24;;;;;;;;;;;;;;;-0.68;53.69;99633.59;6068068;23;20018;-82
2022/11/17 01:45:26;;;;;;;29.60;14.05;;;;;;;-0.78;54.11;99624.75;6068289;23;19944;-78
2022/11/17 01:48:18;;;;;;;25.30;13.00;;;;;;;-0.73;53.89;99636.81;6032687;23;20022;-81
2022/11/17 01:51:06;;;;;;;28.98;13.73;;;;;;;-1.18;54.30;99566.28;6075340;23;20018;-80
2022/11/17 01:53:52;;;;;;;28.13;12.00;;;;;;;-0.97;53.97;99605.34;6077820;23;20019;-83
2022/11/17 01:56:26;;;;;;;24.55;13.18;;;;;;;-0.80;55.09;99634.03;6071344;23;20029;-81
2022/11/17 01:59:08;;;;;;;46.35;20.40;;;;;;;-1.10;54.98;99583.63;6042986;23;20030;-82
2022/11/17 02:01:54;;;;;;;40.63;19.67;;;;;;;-1.00;54.26;99605.28;6068319;23;20023;-81
2022/11/17 02:04:52;;;;;;;36.35;18.00;;;;;;;-1.03;54.99;99591.50;6077934;23;20022;-79
2022/11/17 02:07:46;;;;;;;35.67;17.08;;;;;;;-0.85;55.53;99622.78;6075175;23;20029;-80
2022/11/17 02:10:27;;;;;;;32.22;16.80;;;;;;;-1.15;54.89;99568.97;6099421;23;20074;-79
2022/11/17 02:12:57;;;;;;;32.05;15.43;;;;;;;-0.88;55.00;99609.06;6072594;23;20014;-81
2022/11/17 02:15:36;;;;;;;32.40;16.25;;;;;;;-0.75;54.51;99623.97;6073767;23;20029;-80
2022/11/17 02:18:02;;;;;;;30.17;15.23;;;;;;;-0.76;55.38;99620.56;6085484;23;20026;-80
2022/11/17 02:21:25;;;;;;;29.00;13.50;;;;;;;-0.87;55.21;99621.00;6067105;23;20029;-82
2022/11/17 02:24:33;;;;;;;26.90;13.13;;;;;;;-0.95;55.29;99623.31;6086350;23;20085;-83
2022/11/17 02:27:51;;;;;;;26.90;13.63;;;;;;;-1.04;54.74;99613.66;6096849;23;20038;-80
2022/11/17 02:30:20;;;;;;;30.08;13.65;;;;;;;-1.11;55.50;99602.34;6045716;23;20018;-78
2022/11/17 02:33:22;;;;;;;29.55;13.60;;;;;;;-1.40;55.46;99571.53;6096737;23;20015;-81
2022/11/17 02:36:04;;;;;;;23.88;12.82;;;;;;;-1.16;55.33;99606.41;6047055;23;20022;-80
2022/11/17 02:38:53;;;;;;;28.45;13.23;;;;;;;-1.28;55.45;99588.09;6071845;23;20026;-80
2022/11/17 02:42:07;;;;;;;30.40;13.13;;;;;;;-1.22;55.67;99601.97;6047702;23;20025;-80
2022/11/17 02:45:02;;;;;;;24.10;13.23;;;;;;;-1.35;55.84;99571.69;6070947;23;20018;-80
2022/11/17 02:47:34;;;;;;;21.92;12.73;;;;;;;-1.14;56.28;99586.91;6096138;23;20139;-79
2022/11/17 02:50:35;;;;;;;27.67;12.63;;;;;;;-1.14;56.04;99586.91;6071778;23;20022;-79
2022/11/17 02:54:05;;;;;;;;;;;;;;;;;;;;;
2022/11/17 02:56:20;;;;;;;27.70;12.55;;;;;;;-1.64;55.92;99525.56;6048749;23;20053;-81
2022/11/17 02:58:49;;;;;;;28.05;12.40;;;;;;;-1.42;55.86;99569.72;6072441;23;20062;-82
2022/11/17 03:02:03;;;;;;;27.08;13.57;;;;;;;-1.32;56.28;99579.47;6073133;23;20029;-80
2022/11/17 03:04:31;;;;;;;34.10;13.82;;;;;;;-1.33;55.89;99582.81;6097047;23;20069;-78
2022/11/17 03:07:39;;;;;;;28.90;13.82;;;;;;;-1.35;56.56;99588.72;6072150;23;20054;-80
2022/11/17 03:10:24;;;;;;;26.15;13.25;;;;;;;-1.44;56.71;99584.16;6096403;23;20025;-82
2022/11/17 03:13:39;;;;;;;28.92;12.35;;;;;;;-1.48;56.34;99585.69;6072088;23;20022;-79
2022/11/17 03:16:22;;;;;;;27.48;13.18;;;;;;;-1.41;57.16;99580.00;6096976;23;20448;-81
2022/11/17 03:19:14;;;;;;;;;;;;;;;;;;;;;
2022/11/17 03:21:49;;;;;;;;;;;;;;;-1.77;57.06;99533.59;6097772;23;20065;-81
2022/11/17 03:24:40;;;;;;;28.17;13.55;;;;;;;-1.53;57.10;99574.44;6097264;23;19925;-83
2022/11/17 03:27:49;;;;;;;26.35;13.43;;;;;;;-1.68;56.55;99556.91;6024647;23;20024;-81
2022/11/17 03:30:31;;;;;;;26.40;13.60;;;;;;;-1.47;57.61;99572.13;6056763;23;20037;-80
2022/11/17 03:33:20;;;;;;;24.67;11.38;;;;;;;-1.51;57.09;99577.91;6077393;23;20014;-81
2022/11/17 03:35:59;;;;;;;25.77;13.02;;;;;;;-1.69;57.04;99530.50;6097883;23;20346;-80
2022/11/17 03:38:43;;;;;;;20.10;11.05;;;;;;;-1.58;57.11;99564.06;6073097;23;20052;-81
2022/11/17 03:41:21;;;;;;;25.40;12.07;;;;;;;-2.00;56.42;99503.91;6072137;23;20162;-80
2022/11/17 03:43:50;;;;;;;22.50;11.80;;;;;;;-1.75;57.27;99554.94;6097622;23;20018;-81
2022/11/17 03:46:25;;;;;;;24.95;11.55;;;;;;;-1.68;58.17;99562.88;6073513;23;20024;-82
2022/11/17 03:49:13;;;;;;;24.38;10.60;;;;;;;-1.54;58.00;99571.03;6094608;23;20025;-82
2022/11/17 03:51:40;;;;;;;26.73;11.30;;;;;;;-2.87;57.87;99372.38;6047533;23;20057;-81
2022/11/17 03:54:27;;;;;;;25.25;12.15;;;;;;;-1.52;57.56;99563.41;6071159;23;20044;-80
2022/11/17 03:57:04;;;;;;;25.67;13.25;;;;;;;-1.85;57.85;99523.97;6070090;23;20528;-81
2022/11/17 03:59:55;;;;;;;28.60;14.18;;;;;;;-1.74;58.20;99547.34;6048715;23;20022;-83
2022/11/17 04:02:26;;;;;;;25.58;13.43;;;;;;;-1.83;57.98;99539.34;6097523;23;20018;-82
2022/11/17 04:05:07;;;;;;;26.65;12.40;;;;;;;-1.89;58.25;99531.47;6070121;23;20107;-81
2022/11/17 04:07:43;;;;;;;27.17;12.23;;;;;;;-1.68;57.92;99555.22;6078779;23;20034;-82
2022/11/17 04:15:54;;;;;;;23.90;11.80;;;;;;;-1.64;58.75;99557.88;6100048;23;20018;-80
2022/11/17 04:16:16;;;;;;;24.60;11.50;;;;;;;-1.87;57.72;99489.88;6083654;23;20025;-80
2022/11/17 04:19:09;;;;;;;20.67;10.77;;;;;;;-1.55;59.00;99523.34;6054513;23;20033;-83
2022/11/17 04:22:00;;;;;;;19.65;11.07;;;;;;;-1.40;58.12;99568.09;6099040;23;20492;-82
2022/11/17 04:24:39;;;;;;;17.67;9.77;;;;;;;-1.37;58.03;99558.00;6054472;23;20497;-81
2022/11/17 04:29:58;;;;;;;17.17;7.60;;;;;;;-1.39;58.52;99544.31;6053551;23;20037;-84
2022/11/17 04:32:28;;;;;;;17.10;8.70;;;;;;;-1.25;58.59;99552.47;6100467;23;20121;-79
2022/11/17 04:35:29;;;;;;;20.55;8.05;;;;;;;-1.55;57.58;99556.53;6078951;23;20046;-80
2022/11/17 04:37:58;;;;;;;14.07;7.20;;;;;;;-1.65;59.31;99533.19;6104477;23;20114;-82
2022/11/17 04:41:52;;;;;;;16.48;7.93;;;;;;;-1.64;59.12;99527.25;6104513;23;20018;-82
2022/11/17 04:43:29;;;;;;;21.83;10.35;;;;;;;-1.93;58.65;99493.91;6058938;23;20364;-80
2022/11/17 04:46:00;;;;;;;20.90;10.18;;;;;;;-1.62;58.82;99553.72;6109476;23;20146;-81
2022/11/17 04:48:29;;;;;;;19.52;10.38;;;;;;;-2.05;58.92;99492.66;6075031;23;20014;-81
2022/11/17 04:51:20;;;;;;;20.38;10.30;;;;;;;-1.85;59.03;99515.47;6049110;23;20018;-84
2022/11/17 04:54:24;;;;;;;15.13;8.57;;;;;;;-1.58;59.69;99564.06;6073692;23;20029;-82
2022/11/17 04:57:14;;;;;;;14.13;8.10;;;;;;;-1.69;58.51;99557.72;6096551;23;20018;-83
2022/11/17 04:59:51;;;;;;;16.25;8.10;;;;;;;-1.67;58.89;99551.00;6072927;23;20061;-81
2022/11/17 05:02:26;;;;;;;14.43;7.70;;;;;;;-1.63;59.69;99560.47;6096588;23;20014;-84
2022/11/17 05:05:08;;;;;;;12.02;7.10;;;;;;;-2.16;59.40;99446.34;6047984;23;20018;-82
2022/11/17 05:08:05;;;;;;;15.73;7.80;;;;;;;-1.87;59.52;99466.94;6073614;23;20049;-81
2022/11/17 05:13:49;;;;;;;13.23;7.53;;;;;;;-1.28;59.37;99530.25;6078962;23;20058;-83
2022/11/17 05:19:09;;;;;;;15.27;7.82;;;;;;;-1.35;59.82;99510.41;6108639;23;20468;-83
2022/11/17 05:21:49;;;;;;;12.38;6.72;;;;;;;-1.14;59.39;99550.28;6074642;23;20030;-80
2022/11/17 05:24:21;;;;;;;15.75;7.72;;;;;;;-1.38;59.72;99507.75;6100036;23;20022;-81
2022/11/17 05:27:16;;;;;;;12.52;6.90;;;;;;;-1.13;58.71;99552.91;6097954;23;20018;-79
2022/11/17 05:29:41;;;;;;;14.68;8.15;;;;;;;-1.55;60.01;99472.31;6101116;23;20089;-82
2022/11/17 05:32:23;;;;;;;12.40;7.13;;;;;;;-1.15;59.26;99540.88;6111436;23;20026;-82
2022/11/17 05:35:00;;;;;;;16.13;8.73;;;;;;;-1.13;59.38;99562.22;6057469;23;20022;-80
2022/11/17 05:37:40;;;;;;;15.63;9.05;;;;;;;-1.13;59.79;99546.91;6102866;23;20022;-82
2022/11/17 05:40:47;;;;;;;13.00;8.50;;;;;;;-1.20;59.51;99550.94;6098823;23;20389;-81
2022/11/17 05:43:14;;;;;;;15.75;9.23;;;;;;;-1.48;59.55;99508.25;6099455;23;20025;-82
2022/11/17 05:45:39;;;;;;;16.05;9.02;;;;;;;-1.10;60.02;99554.66;6072391;23;20026;-81
2022/11/17 05:48:18;;;;;;;18.90;9.13;;;;;;;-2.64;59.68;99319.72;6075919;23;20022;-80
2022/11/17 05:51:14;;;;;;;17.60;8.98;;;;;;;-1.92;59.62;99420.00;6115570;23;20018;-79
2022/11/17 05:53:43;;;;;;;15.65;8.38;;;;;;;-1.49;59.60;99471.66;6094063;23;20022;-82
2022/11/17 05:56:27;;;;;;;14.15;8.93;;;;;;;-1.31;59.87;99514.81;6117767;23;20018;-81
2022/11/17 05:59:52;;;;;;;13.93;8.10;;;;;;;-1.54;59.83;99453.63;6061961;23;20033;-83
2022/11/17 06:03:00;;;;;;;14.43;8.48;;;;;;;-1.68;60.19;99442.09;5996960;23;20028;-81
2022/11/17 06:05:40;;;;;;;14.27;7.47;;;;;;;-1.54;59.66;99419.56;6077487;23;20014;-82
2022/11/17 06:08:25;;;;;;;14.00;7.38;;;;;;;-1.14;59.37;99482.19;6101217;23;20022;-79
2022/11/17 06:11:16;;;;;;;14.85;8.10;;;;;;;-1.20;60.22;99487.09;6076325;23;20022;-83
2022/11/17 06:16:44;;;;;;;14.52;7.25;;;;;;;-1.31;59.66;99462.88;6066906;23;20014;-84
2022/11/17 06:19:26;;;;;;;12.98;7.70;;;;;;;-0.77;60.11;99533.59;6079570;23;20442;-86
2022/11/17 06:21:55;;;;;;;11.48;7.05;;;;;;;-0.52;60.00;99530.16;6073315;23;20018;-82
2022/11/17 06:24:22;;;;;;;15.02;7.22;;;;;;;-0.53;60.51;99515.66;6073559;23;20073;-82
2022/11/17 06:27:24;;;;;;;14.75;7.07;;;;;;;-0.42;59.91;99513.44;6073827;23;20046;-79
2022/11/17 06:30:02;;;;;;;13.37;7.47;;;;;;;-0.50;59.60;99523.41;6075196;23;20022;-81
2022/11/17 06:32:34;;;;;;;9.48;5.70;;;;;;;-0.55;58.99;99516.44;6095634;23;20018;-81
2022/11/17 06:35:15;;;;;;;10.65;5.55;;;;;;;-0.83;58.28;99523.22;6096107;23;20023;-82
2022/11/17 06:40:43;;;;;;;11.82;6.28;;;;;;;-1.42;59.27;99449.75;6075297;23;20018;-81
2022/11/17 06:43:20;;;;;;;9.88;5.50;;;;;;;-1.05;60.22;99471.41;6098135;23;20467;-82
2022/11/17 06:46:12;;;;;;;10.40;5.70;;;;;;;-1.45;60.69;99362.88;6095220;23;20018;-81
2022/11/17 06:51:58;;;;;;;12.13;6.28;;;;;;;-0.05;60.33;99552.91;6071957;23;20085;-82
2022/11/17 06:55:28;;;;;;;11.07;5.72;;;;;;;-0.88;59.25;99422.53;6069580;23;20018;-82
2022/11/17 06:58:47;;;;;;;10.85;5.60;;;;;;;-0.81;59.98;99412.56;6073552;23;20551;-81
2022/11/17 07:01:27;;;;;;;11.43;6.30;;;;;;;-0.67;60.03;99410.44;6097481;23;20021;-81
2022/11/17 07:04:06;;;;;;;12.60;6.68;;;;;;;0.05;59.75;99528.47;6071262;23;20456;-79
2022/11/17 07:06:36;;;;;;;15.13;7.28;;;;;;;-0.16;59.20;99457.09;6064983;23;20026;-81
2022/11/17 07:09:24;;;;;;;13.45;7.30;;;;;;;-0.67;58.37;99451.31;6048958;23;20053;-80
2022/11/17 07:12:36;;;;;;;14.05;7.57;;;;;;;-0.23;59.18;99534.44;6069007;23;20038;-81
2022/11/17 07:16:33;;;;;;;;;;;;;;;;;;;;;
2022/11/17 07:19:32;;;;;;;12.93;7.05;;;;;;;-1.09;59.81;99438.94;6052322;23;20018;-80
2022/11/17 07:22:33;;;;;;;12.38;6.22;;;;;;;-0.50;59.32;99471.41;6102515;23;20018;-81
2022/11/17 07:25:03;;;;;;;12.38;6.78;;;;;;;-0.99;59.73;99406.88;6079179;23;20025;-79
2022/11/17 07:30:40;;;;;;;16.23;8.38;;;;;;;-0.29;57.96;99503.56;6057181;23;20045;-78
2022/11/17 07:33:44;;;;;;;17.45;9.93;;;;;;;-1.12;59.10;99334.13;6109857;23;20021;-79
2022/11/17 07:37:38;;;;;;;;;;;;;;;;;;;;;
2022/11/17 07:39:47;;;;;;;19.73;10.85;;;;;;;0.51;59.11;99533.16;6099564;23;20101;-80
2022/11/17 07:42:44;;;;;;;;;;;;;;;;;;;;;
2022/11/17 07:45:58;;;;;;;26.33;11.57;;;;;;;-0.87;57.67;99345.06;6049875;23;20368;-82
2022/11/17 07:51:47;;;;;;;33.88;10.93;;;;;;;-1.21;58.19;99340.66;6072675;23;20077;-81
2022/11/17 07:54:49;;;;;;;17.05;8.35;;;;;;;-0.20;59.27;99516.63;6050533;23;20045;-83
2022/11/17 07:57:32;;;;;;;16.30;10.00;;;;;;;0.09;57.82;99548.19;6068397;23;20019;-81
2022/11/17 08:00:05;;;;;;;16.10;8.98;;;;;;;-0.25;58.68;99511.41;6099774;23;20465;-81
2022/11/17 08:09:45;;;;;;;;;;;;;;;;;;;;;
2022/11/17 08:12:38;;;;;;;10.65;6.32;;;;;;;-0.30;58.07;99405.53;6078341;23;20019;-82
2022/11/17 08:15:09;;;;;;;12.40;6.32;;;;;;;0.25;58.29;99452.25;6106168;23;20029;-81
2022/11/17 08:17:40;;;;;;;7.80;4.82;;;;;;;0.94;58.93;99515.50;6083232;23;20402;-80
2022/11/17 08:20:30;;;;;;;6.95;4.22;;;;;;;1.90;59.25;99528.88;6088203;23;20025;-81
2022/11/17 08:23:27;;;;;;;7.20;4.15;;;;;;;2.19;58.83;99467.00;6117066;23;20087;-80
2022/11/17 08:26:12;;;;;;;7.75;5.22;;;;;;;2.46;57.13;99375.88;6121429;23;20018;-78
2022/11/17 08:28:57;;;;;;;9.02;5.40;;;;;;;3.27;55.51;99419.16;6070987;23;20018;-83
2022/11/17 08:31:40;;;;;;;11.52;5.80;;;;;;;3.38;55.33;99375.56;6097196;23;19998;-82
2022/11/17 08:34:57;;;;;;;11.52;6.95;;;;;;;3.76;52.97;99372.63;6098584;23;20026;-81
2022/11/17 08:37:39;;;;;;;11.27;6.78;;;;;;;3.82;53.85;99387.28;6098246;23;20053;-81
2022/11/17 08:40:20;;;;;;;10.48;6.28;;;;;;;3.22;51.14;99400.22;6056611;23;20050;-84
2022/11/17 08:43:04;;;;;;;10.48;6.68;;;;;;;2.74;52.63;99422.59;6051769;23;20022;-81
2022/11/17 08:49:24;;;;;;;10.63;6.72;;;;;;;1.55;53.11;99521.22;6077834;23;20015;-80
2022/11/17 08:52:00;;;;;;;12.70;6.88;;;;;;;1.36;54.54;99519.94;6045349;23;20106;-80
2022/11/17 08:54:52;;;;;;;;;;;;;;;;;;;;;
2022/11/17 08:58:16;;;;;;;10.25;6.53;;;;;;;1.00;52.79;99531.00;6069264;23;20022;-82
2022/11/17 09:00:50;;;;;;;11.68;6.55;;;;;;;0.82;55.62;99514.34;6027950;23;20480;-80
2022/11/17 09:03:25;;;;;;;8.85;5.47;;;;;;;0.63;54.27;99486.50;6047142;23;20046;-80
2022/11/17 09:06:04;;;;;;;9.07;5.32;;;;;;;0.67;54.41;99507.13;6106154;23;20102;-80
2022/11/17 09:08:38;;;;;;;6.22;3.95;;;;;;;0.53;54.36;99483.72;6099581;23;20045;-81
2022/11/17 09:11:15;;;;;;;;;;;;;;;0.69;55.00;99505.47;6101743;23;20022;-82
2022/11/17 09:14:14;;;;;;;;;;;;;;;;;;;;;
2022/11/17 09:16:52;;;;;;;10.93;5.20;;;;;;;1.32;54.41;99447.22;6107671;23;20385;-82
2022/11/17 09:19:58;;;;;;;8.70;4.60;;;;;;;1.33;54.37;99394.25;6105444;23;20018;-81
2022/11/17 09:26:39;;;;;;;7.72;4.80;;;;;;;2.65;51.65;99496.97;6102625;23;20025;-80
2022/11/17 09:29:07;;;;;;;6.28;4.20;;;;;;;2.64;52.36;99439.56;6105647;23;20034;-81
2022/11/17 09:31:36;;;;;;;7.22;4.32;;;;;;;3.34;52.03;99455.25;6103785;23;20022;-82
2022/11/17 09:34:28;;;;;;;6.68;3.70;;;;;;;3.96;49.36;99461.25;6080942;23;20082;-80
2022/11/17 09:37:16;;;;;;;7.00;4.30;;;;;;;3.50;48.99;99248.81;6078367;23;20014;-78
2022/11/17 09:39:54;;;;;;;7.72;3.83;;;;;;;4.22;50.15;99348.22;6108805;23;20074;-80
2022/11/17 09:42:40;;;;;;;5.28;3.28;;;;;;;5.07;49.24;99374.69;6078592;23;20028;-80
2022/11/17 09:45:40;;;;;;;;;;;;;;;;;;;;;
2022/11/17 09:48:29;;;;;;;5.05;3.80;;;;;;;9.45;47.71;99376.41;6078654;23;20025;-80
2022/11/17 09:50:58;;;;;;;7.78;4.22;;;;;;;9.99;41.50;99413.91;6052989;23;20338;-81
2022/11/17 09:53:36;;;;;;;10.55;6.25;;;;;;;8.91;40.91;99406.38;6076691;23;20157;-81
2022/11/17 09:56:08;;;;;;;9.32;5.40;;;;;;;8.42;42.38;99382.47;6074796;23;20045;-80
2022/11/17 09:58:56;;;;;;;;;;;;;;;8.38;41.82;99439.56;6104120;23;20025;-82
2022/11/17 10:01:26;;;;;;;8.93;5.53;;;;;;;6.94;42.60;99407.16;6080676;23;19961;-80
2022/11/17 10:04:02;;;;;;;8.25;5.10;;;;;;;6.37;42.07;99463.97;6078353;23;20052;-82
2022/11/17 10:06:40;;;;;;;8.45;5.22;;;;;;;4.75;43.60;99334.06;6105964;23;20030;-81
2022/11/17 10:09:42;;;;;;;6.93;4.60;;;;;;;5.31;43.64;99454.81;6057556;23;20018;-81
2022/11/17 10:12:18;;;;;;;10.32;5.32;;;;;;;4.80;44.46;99438.09;6102522;23;20025;-80
2022/11/17 10:20:36;;;;;;;8.60;5.28;;;;;;;4.75;45.12;99465.53;5873024;24;20049;-82
2022/11/17 10:25:57;;;;;;;7.82;4.65;;;;;;;3.30;44.53;99414.06;6073838;23;20022;-82
2022/11/17 10:29:02;;;;;;;8.63;4.90;;;;;;;3.56;45.65;99465.03;6104011;23;20018;-82
2022/11/17 10:34:36;;;;;;;7.50;4.60;;;;;;;2.77;45.71;99463.78;6076528;23;20042;-83
2022/11/17 10:41:37;;;;;;;14.57;6.93;;;;;;;1.68;47.51;99331.69;5939804;24;20123;-82
2022/11/17 10:44:23;;;;;;;11.82;4.90;;;;;;;2.52;46.98;99470.19;5994356;23;20024;-81
2022/11/17 10:47:02;;;;;;;8.85;4.68;;;;;;;2.52;47.27;99436.81;6077282;23;20506;-80
2022/11/17 10:49:39;;;;;;;10.32;4.93;;;;;;;2.00;46.97;99332.31;6077943;23;20029;-81
2022/11/17 10:52:10;;;;;;;10.60;5.10;;;;;;;2.99;47.65;99461.56;6065990;23;20026;-80
2022/11/17 10:54:37;;;;;;;8.43;4.47;;;;;;;2.33;47.35;99340.56;6090905;23;20018;-82
2022/11/17 10:57:14;;;;;;;6.28;4.03;;;;;;;2.14;47.07;99341.94;6083341;23;20022;-83
2022/11/17 10:59:47;;;;;;;5.95;3.90;;;;;;;2.69;47.10;99426.81;6078944;23;20097;-81
2022/11/17 11:02:29;;;;;;;5.57;4.00;;;;;;;2.89;47.05;99455.41;6055619;23;19998;-80
2022/11/17 11:05:21;;;;;;;7.28;4.10;;;;;;;2.21;46.66;99336.94;6108216;23;20028;-81
2022/11/17 11:07:49;;;;;;;6.97;4.32;;;;;;;2.83;47.19;99433.06;6078458;23;20022;-79
2022/11/17 11:13:59;;;;;;;4.65;3.08;;;;;;;3.08;46.70;99473.72;6105097;23;20040;-81
2022/11/17 11:16:29;;;;;;;4.95;2.80;;;;;;;2.85;45.99;99420.22;6083470;23;20022;-80
2022/11/17 11:18:57;;;;;;;4.38;3.00;;;;;;;3.05;46.41;99463.38;6056830;23;20022;-82
2022/11/17 11:21:38;;;;;;;4.45;2.80;;;;;;;2.76;45.85;99412.38;6076662;23;20014;-80
2022/11/17 11:24:33;;;;;;;5.38;2.88;;;;;;;1.48;46.36;99219.34;6099399;23;20026;-80
2022/11/17 11:27:20;;;;;;;8.02;3.70;;;;;;;2.34;45.59;99376.53;6052650;23;20057;-80
2022/11/17 11:29:58;;;;;;;3.63;2.60;;;;;;;2.23;46.08;99375.50;6053149;23;20014;-80
2022/11/17 11:33:01;;;;;;;4.57;2.72;;;;;;;2.29;45.65;99408.13;6080291;23;20033;-80
2022/11/17 11:36:10;;;;;;;3.25;2.33;;;;;;;2.54;45.95;99453.97;6100764;23;20361;-80
2022/11/17 11:38:54;;;;;;;3.70;2.13;;;;;;;2.18;44.96;99456.69;5959400;24;20031;-82
2022/11/17 11:41:48;;;;;;;3.92;1.90;;;;;;;1.85;45.24;99463.75;6093457;23;20432;-80
2022/11/17 11:44:51;;;;;;;4.72;2.90;;;;;;;1.79;45.53;99459.34;6075513;23;20018;-82
2022/11/17 11:47:56;;;;;;;5.07;3.47;;;;;;;1.68;45.81;99455.69;6050898;23;20018;-80
2022/11/17 11:50:33;;;;;;;4.75;2.42;;;;;;;0.83;45.85;99317.97;6045218;23;20525;-81
2022/11/17 11:56:56;;;;;;;4.68;3.20;;;;;;;0.32;45.71;99312.50;6001964;23;20023;-81
2022/11/17 12:00:09;;;;;;;4.68;3.17;;;;;;;1.04;45.46;99464.50;5968336;23;20026;-81
2022/11/17 12:14:54;;;;;;;2.80;2.20;;;;;;;0.24;47.35;99488.91;5865489;24;20443;-80
2022/11/17 12:18:05;;;;;;;6.40;3.10;;;;;;;0.12;47.43;99462.97;5912585;23;20016;-81
2022/11/17 12:20:37;;;;;;;4.80;3.20;;;;;;;0.04;47.80;99467.88;5955084;23;20018;-80
2022/11/17 12:23:06;;;;;;;;;;;;;;;0.14;47.47;99469.00;5994162;23;20101;-82
2022/11/17 12:25:43;;;;;;;4.32;3.13;;;;;;;0.02;47.33;99423.47;6014933;23;19913;-81
2022/11/17 12:28:42;;;;;;;4.25;2.92;;;;;;;-0.25;47.56;99365.63;5993371;23;20110;-81
2022/11/17 12:31:36;;;;;;;6.32;3.30;;;;;;;0.26;46.86;99463.34;6038403;23;20019;-82
2022/11/17 12:34:32;;;;;;;5.70;3.25;;;;;;;-0.11;46.96;99406.91;6016312;23;20101;-82
2022/11/17 12:37:32;;;;;;;6.30;3.42;;;;;;;-1.49;47.61;99226.63;6050789;23;20041;-80
2022/11/17 12:40:09;;;;;;;7.97;3.63;;;;;;;-0.87;48.18;99310.16;6069445;23;20050;-80
2022/11/17 12:43:23;;;;;;;5.40;3.30;;;;;;;-0.16;47.59;99449.41;6103011;23;20018;-82
2022/11/17 12:54:17;;;;;;;7.72;4.03;;;;;;;-0.48;48.94;99391.41;5956749;24;20031;-83
2022/11/17 12:57:59;;;;;;;;;;;;;;;;;;;;;
2022/11/17 13:05:21;;;;;;;5.50;2.78;;;;;;;-0.81;49.08;99494.31;5821999;24;20050;-82
2022/11/17 13:07:47;;;;;;;5.40;3.25;;;;;;;-2.17;49.37;99293.31;5850444;24;20309;-82
2022/11/17 13:10:44;;;;;;;7.97;4.18;;;;;;;-1.09;49.89;99493.41;5953020;24;20023;-82
2022/11/17 13:13:25;;;;;;;5.50;2.97;;;;;;;-1.63;50.44;99432.88;5963383;23;20030;-82
2022/11/17 13:16:04;;;;;;;5.75;2.97;;;;;;;-1.33;49.98;99498.56;6102573;23;20046;-80
2022/11/17 13:18:37;;;;;;;3.28;2.25;;;;;;;-1.92;50.16;99403.81;6078118;23;20038;-82
2022/11/17 13:21:36;;;;;;;5.43;2.80;;;;;;;-1.39;50.38;99501.78;6025116;23;20082;-82
2022/11/17 13:24:44;;;;;;;7.80;3.30;;;;;;;-2.58;50.12;99321.66;6082916;23;20037;-82
2022/11/17 13:27:29;;;;;;;15.90;5.15;;;;;;;-2.46;50.83;99360.31;6018978;23;20421;-79
2022/11/17 13:30:19;;;;;;;16.40;4.97;;;;;;;-1.96;50.72;99451.31;6065542;23;20121;-80
2022/11/17 13:32:49;;;;;;;11.73;4.63;;;;;;;-2.34;50.50;99428.69;6042298;23;20019;-81
2022/11/17 13:39:25;;;;;;;10.88;4.43;;;;;;;-2.82;50.77;99341.97;6045957;23;20033;-82
2022/11/17 13:42:01;;;;;;;20.80;5.05;;;;;;;-2.79;50.69;99365.91;6046651;23;20029;-82
2022/11/17 13:45:15;;;;;;;9.57;4.45;;;;;;;-2.85;50.49;99375.84;6067674;23;20385;-82
2022/11/17 13:47:58;;;;;;;11.25;4.13;;;;;;;-3.51;50.82;99244.34;6019362;23;20022;-82
2022/11/17 13:50:54;;;;;;;8.27;3.65;;;;;;;-3.60;50.99;99244.00;6044478;23;20018;-83
2022/11/17 13:53:56;;;;;;;;;;;;;;;-2.06;50.56;99502.78;6043682;23;20396;-86
2022/11/17 13:56:45;;;;;;;7.05;3.13;;;;;;;-2.14;50.29;99508.47;6022755;23;19925;-81
2022/11/17 13:59:17;;;;;;;7.13;4.10;;;;;;;-2.20;50.63;99504.81;6069323;23;20030;-83
2022/11/17 14:01:44;;;;;;;7.80;3.80;;;;;;;-2.16;51.14;99506.66;6043869;23;20018;-81
2022/11/17 14:04:17;;;;;;;9.23;3.97;;;;;;;-2.23;51.73;99499.63;6067900;23;20142;-81
2022/11/17 14:06:54;;;;;;;10.50;4.22;;;;;;;-2.27;51.52;99503.72;6043935;23;20026;-82
2022/11/17 14:09:21;;;;;;;7.05;4.00;;;;;;;-2.16;51.42;99502.47;6045079;23;20018;-81
2022/11/17 14:11:47;;;;;;;12.52;4.57;;;;;;;-2.15;51.67;99509.28;6068435;23;20038;-82
2022/11/17 14:14:17;;;;;;;11.68;5.05;;;;;;;-2.02;51.58;99515.72;6068905;23;20029;-82
2022/11/17 14:16:45;;;;;;;9.38;4.10;;;;;;;-2.09;51.78;99493.34;6071092;23;20018;-80
2022/11/17 14:19:17;;;;;;;8.75;4.32;;;;;;;-1.96;51.50;99512.53;6068320;23;20461;-83
2022/11/17 14:22:15;;;;;;;11.18;4.18;;;;;;;-2.17;51.52;99467.56;6091454;23;20097;-80
2022/11/17 14:24:47;;;;;;;9.55;4.28;;;;;;;-2.76;51.49;99396.56;6050535;23;20030;-81
2022/11/17 14:27:37;;;;;;;8.93;3.92;;;;;;;-2.20;51.74;99480.19;6069597;23;20038;-83
2022/11/17 14:30:04;;;;;;;8.27;3.30;;;;;;;-2.14;51.21;99484.66;6072453;23;20098;-81
2022/11/17 14:32:31;;;;;;;7.22;3.30;;;;;;;-2.11;51.40;99510.28;6067159;23;20015;-80
2022/11/17 14:34:57;;;;;;;7.43;3.00;;;;;;;-2.20;51.52;99498.03;6095074;23;20047;-79
2022/11/17 14:37:24;;;;;;;6.28;2.92;;;;;;;-2.26;52.09;99485.06;6085206;23;19998;-79
2022/11/17 14:39:50;;;;;;;7.93;3.67;;;;;;;-2.37;52.16;99483.78;6045556;23;20015;-80
2022/11/17 14:42:16;;;;;;;5.10;2.92;;;;;;;-2.44;51.69;99477.59;6067041;23;20078;-83
2022/11/17 14:44:42;;;;;;;6.80;3.22;;;;;;;-2.47;51.21;99501.28;6067526;23;20029;-81
2022/11/17 14:47:09;;;;;;;7.22;3.38;;;;;;;-2.53;51.81;99490.84;6091260;23;20026;-84
2022/11/17 14:49:34;;;;;;;8.50;3.75;;;;;;;-2.61;52.10;99488.00;6043413;23;20022;-81
2022/11/17 14:52:01;;;;;;;9.25;3.60;;;;;;;-2.55;51.91;99502.69;6066694;23;20026;-79
2022/11/17 14:54:27;;;;;;;7.40;3.60;;;;;;;-2.69;51.97;99488.50;6067598;23;20026;-81